Wainwright, Oklahoma
Current Conditions -  °F | °C
As of 12:53 AM on Sunday 26 Oct 2014 (Local Time) from KMKO Reporting Station
Clear Clear  
Wind Chill: 63°   Ceiling: Unl
Heat Index: 63°   Visibility: 8mi
Dew Point: 62°   Wind: 6mph
Humidity: 97%   Direction: 160°SSE
Pressure: 29.99"   Gusts: NA
Location:  35.61°N, 95.56°W
Report Text: KMKO 260553Z AUTO 16005KT 8SM CLR 17/17 A2999 RMK AO2 SLP150 T01720167 10244 20172 403000144 58011
Loading
Personal Weather Stations






























Interactive Weather Map
Tropical Storm Tracking
New forecast layout! Learn more

10-Day Weather Forecast

Advertisements
Track Severe Weather on mobile